createdAt,value
2023-01-07T00:00:10.177Z,100955.20
2023-01-07T00:01:45.887Z,100951.20
2023-01-07T00:03:18.676Z,100948.80
2023-01-07T00:04:50.688Z,100951.40
2023-01-07T00:06:29.958Z,100952.00
2023-01-07T00:08:01.905Z,100949.60
2023-01-07T00:09:33.845Z,100943.80
2023-01-07T00:11:10.073Z,100940.40
2023-01-07T00:12:41.847Z,100944.60
2023-01-07T00:14:15.389Z,100945.20
2023-01-07T00:15:47.278Z,100945.20
2023-01-07T00:17:19.124Z,100944.60
2023-01-07T00:18:53.680Z,100946.00
2023-01-07T00:20:25.558Z,100946.80
2023-01-07T00:21:58.134Z,100945.40
2023-01-07T00:23:33.040Z,100940.20
2023-01-07T00:25:05.632Z,100944.00
2023-01-07T00:26:39.496Z,100940.00
2023-01-07T00:28:11.340Z,100943.60
2023-01-07T00:29:44.284Z,100945.40
2023-01-07T00:31:22.404Z,100943.40
2023-01-07T00:33:05.192Z,100942.00
2023-01-07T00:34:39.097Z,100945.40
2023-01-07T00:36:10.963Z,100941.80
2023-01-07T00:37:52.811Z,100941.00
2023-01-07T00:39:24.905Z,100935.60
2023-01-07T00:40:57.172Z,100938.60
2023-01-07T00:42:47.732Z,100929.60
2023-01-07T00:44:19.658Z,100933.80
2023-01-07T00:45:51.672Z,100934.40
2023-01-07T00:47:23.575Z,100934.00
2023-01-07T00:48:56.087Z,100936.00
2023-01-07T00:50:34.104Z,100935.80
2023-01-07T00:52:06.057Z,100936.20
2023-01-07T00:53:38.763Z,100932.60
2023-01-07T00:55:12.488Z,100929.80
2023-01-07T00:56:45.390Z,100931.00
2023-01-07T00:58:27.302Z,100931.20
2023-01-07T01:00:01.120Z,100930.20
2023-01-07T01:01:33.183Z,100931.00
2023-01-07T01:03:06.284Z,100922.00
2023-01-07T01:04:38.067Z,100922.00
2023-01-07T01:06:15.446Z,100922.80
2023-01-07T01:07:48.715Z,100919.00
2023-01-07T01:09:23.475Z,100921.00
2023-01-07T01:10:55.368Z,100915.20
2023-01-07T01:12:28.375Z,100914.60
2023-01-07T01:14:01.434Z,100915.00
2023-01-07T01:15:33.561Z,100915.60
2023-01-07T01:17:05.560Z,100913.80
2023-01-07T01:18:39.095Z,100911.60
2023-01-07T01:20:16.071Z,100914.40
2023-01-07T01:21:48.109Z,100911.00
2023-01-07T01:23:20.364Z,100916.60
2023-01-07T01:24:52.443Z,100916.00
2023-01-07T01:26:24.357Z,100915.00
2023-01-07T01:27:56.146Z,100910.00
2023-01-07T01:29:28.033Z,100911.40
2023-01-07T01:31:00.075Z,100912.40
2023-01-07T01:32:35.648Z,100912.60
2023-01-07T01:34:08.000Z,100911.00
2023-01-07T01:35:41.308Z,100915.20
2023-01-07T01:37:13.206Z,100909.40
2023-01-07T01:38:45.123Z,100905.20
2023-01-07T01:40:17.335Z,100906.60
2023-01-07T01:41:49.453Z,100907.00
2023-01-07T01:43:36.245Z,100916.80
2023-01-07T01:45:10.920Z,100909.60
2023-01-07T01:46:45.944Z,100913.20
2023-01-07T01:48:21.493Z,100908.80
2023-01-07T01:50:19.980Z,100912.80
2023-01-07T01:52:03.138Z,100909.00
2023-01-07T01:53:36.840Z,100907.40
2023-01-07T01:55:13.666Z,100905.40
2023-01-07T01:56:51.473Z,100906.80
2023-01-07T01:58:38.795Z,100901.80
2023-01-07T02:00:12.161Z,100900.80
2023-01-07T02:01:48.696Z,100898.20
2023-01-07T02:03:24.900Z,100898.60
2023-01-07T02:04:58.355Z,100898.40
2023-01-07T02:06:35.034Z,100895.00
2023-01-07T02:08:09.173Z,100892.80
2023-01-07T02:09:41.639Z,100897.20
2023-01-07T02:11:56.188Z,100893.80
2023-01-07T02:14:16.075Z,100889.00
2023-01-07T02:16:02.537Z,100889.00
2023-01-07T02:18:10.943Z,100889.40
2023-01-07T02:20:07.452Z,100892.20
2023-01-07T02:22:13.140Z,100890.00
2023-01-07T02:24:36.401Z,100889.40
2023-01-07T02:26:38.276Z,100884.80
2023-01-07T02:28:32.205Z,100880.80
2023-01-07T02:30:21.586Z,100882.80
2023-01-07T02:32:17.687Z,100884.80
2023-01-07T02:34:04.233Z,100884.80
2023-01-07T02:36:14.691Z,100883.80
2023-01-07T02:38:23.430Z,100884.40
2023-01-07T02:40:27.411Z,100886.80
2023-01-07T02:42:38.606Z,100890.00
2023-01-07T02:44:28.157Z,100884.40
2023-01-07T02:46:45.069Z,100892.80
2023-01-07T02:48:20.792Z,100883.80
2023-01-07T02:49:52.939Z,100884.80
2023-01-07T02:51:37.688Z,100883.80
2023-01-07T02:53:16.958Z,100882.80
2023-01-07T02:55:08.363Z,100878.00
2023-01-07T02:57:05.355Z,100875.40
2023-01-07T02:58:54.976Z,100874.20
2023-01-07T03:01:15.573Z,100871.00
2023-01-07T03:03:03.008Z,100867.80
2023-01-07T03:05:16.085Z,100861.20
2023-01-07T03:07:23.442Z,100859.60
2023-01-07T03:09:49.765Z,100860.60
2023-01-07T03:11:26.774Z,100851.80
2023-01-07T03:13:16.801Z,100854.80
2023-01-07T03:15:03.205Z,100853.80
2023-01-07T03:17:00.905Z,100852.20
2023-01-07T03:18:40.512Z,100847.80
2023-01-07T03:20:14.211Z,100844.80
2023-01-07T03:21:49.177Z,100838.20
2023-01-07T03:23:27.632Z,100836.80
2023-01-07T03:25:02.661Z,100842.20
2023-01-07T03:26:47.549Z,100836.60
2023-01-07T03:28:28.804Z,100838.60
2023-01-07T03:30:07.255Z,100841.60
2023-01-07T03:31:53.706Z,100838.60
2023-01-07T03:34:06.711Z,100840.00
2023-01-07T03:35:43.683Z,100838.40
2023-01-07T03:37:23.531Z,100840.80
2023-01-07T03:38:57.619Z,100838.80
2023-01-07T03:40:30.393Z,100836.60
2023-01-07T03:42:26.422Z,100834.80
2023-01-07T03:43:58.748Z,100832.60
2023-01-07T03:45:31.265Z,100832.80
2023-01-07T03:47:04.959Z,100832.60
2023-01-07T03:48:36.774Z,100825.40
2023-01-07T03:50:09.512Z,100823.80
2023-01-07T03:51:41.785Z,100826.00
2023-01-07T03:53:13.609Z,100818.80
2023-01-07T03:54:49.598Z,100819.60
2023-01-07T03:56:22.254Z,100813.00
2023-01-07T03:57:54.204Z,100816.40
2023-01-07T03:59:27.153Z,100812.40
2023-01-07T04:00:59.372Z,100808.80
2023-01-07T04:02:32.784Z,100806.60
2023-01-07T04:04:05.177Z,100804.80
2023-01-07T04:05:37.040Z,100803.00
2023-01-07T04:07:09.221Z,100798.60
2023-01-07T04:08:41.177Z,100798.60
2023-01-07T04:10:13.074Z,100796.60
2023-01-07T04:11:45.788Z,100799.20
2023-01-07T04:13:17.737Z,100795.20
2023-01-07T04:14:51.066Z,100794.40
2023-01-07T04:16:22.942Z,100790.40
2023-01-07T04:17:54.824Z,100787.60
2023-01-07T04:19:27.659Z,100782.80
2023-01-07T04:20:59.467Z,100785.00
2023-01-07T04:22:31.248Z,100785.20
2023-01-07T04:24:03.834Z,100781.40
2023-01-07T04:25:35.949Z,100775.60
2023-01-07T04:27:10.303Z,100773.60
2023-01-07T04:28:42.124Z,100776.00
2023-01-07T04:30:14.832Z,100777.20
2023-01-07T04:31:48.060Z,100776.00
2023-01-07T04:33:19.829Z,100774.40
2023-01-07T04:34:52.241Z,100775.00
2023-01-07T04:36:25.719Z,100773.20
2023-01-07T04:37:58.943Z,100775.80
2023-01-07T04:39:30.930Z,100774.00
2023-01-07T04:41:02.927Z,100780.60
2023-01-07T04:42:35.036Z,100776.40
2023-01-07T04:44:07.430Z,100779.00
2023-01-07T04:45:39.268Z,100778.20
2023-01-07T04:47:11.349Z,100773.60
2023-01-07T04:48:43.279Z,100772.40
2023-01-07T04:50:15.902Z,100773.20
2023-01-07T04:51:47.974Z,100769.60
2023-01-07T04:53:20.298Z,100767.20
2023-01-07T04:54:52.387Z,100765.80
2023-01-07T04:56:24.632Z,100763.00
2023-01-07T04:57:56.491Z,100762.40
2023-01-07T04:59:28.307Z,100757.80
2023-01-07T05:01:04.532Z,100760.00
2023-01-07T05:02:37.067Z,100757.40
2023-01-07T05:04:09.881Z,100755.40
2023-01-07T05:05:41.990Z,100749.60
2023-01-07T05:07:14.127Z,100754.00
2023-01-07T05:08:46.145Z,100751.20
2023-01-07T05:10:18.724Z,100741.20
2023-01-07T05:11:50.685Z,100740.60
2023-01-07T05:13:24.404Z,100740.80
2023-01-07T05:14:56.497Z,100741.20
2023-01-07T05:16:28.556Z,100738.40
2023-01-07T05:18:01.981Z,100735.80
2023-01-07T05:19:34.059Z,100735.00
2023-01-07T05:21:06.357Z,100734.60
2023-01-07T05:22:38.745Z,100729.20
2023-01-07T05:24:10.831Z,100725.80
2023-01-07T05:25:42.675Z,100724.80
2023-01-07T05:27:14.553Z,100722.40
2023-01-07T05:28:46.572Z,100719.60
2023-01-07T05:30:18.808Z,100718.80
2023-01-07T05:31:50.643Z,100716.20
2023-01-07T05:33:22.826Z,100722.60
2023-01-07T05:34:54.692Z,100718.40
2023-01-07T05:36:26.601Z,100718.60
2023-01-07T05:37:59.706Z,100713.80
2023-01-07T05:39:32.440Z,100718.80
2023-01-07T05:41:05.143Z,100716.60
2023-01-07T05:42:37.123Z,100714.00
2023-01-07T05:44:09.061Z,100711.60
2023-01-07T05:45:46.759Z,100710.20
2023-01-07T05:47:18.585Z,100711.40
2023-01-07T05:48:50.411Z,100703.40
2023-01-07T05:50:22.423Z,100705.40
2023-01-07T05:51:55.061Z,100706.40
2023-01-07T05:53:27.381Z,100700.60
2023-01-07T05:54:59.223Z,100705.40
2023-01-07T05:56:31.020Z,100704.80
2023-01-07T05:58:02.907Z,100705.40
2023-01-07T05:59:35.404Z,100700.40
2023-01-07T06:01:07.193Z,100704.20
2023-01-07T06:02:39.443Z,100701.80
2023-01-07T06:04:12.220Z,100701.00
2023-01-07T06:05:44.524Z,100706.20
2023-01-07T06:07:16.365Z,100708.80
2023-01-07T06:08:48.176Z,100705.60
2023-01-07T06:10:20.172Z,100701.60
2023-01-07T06:11:51.964Z,100704.00
2023-01-07T06:13:23.753Z,100706.20
2023-01-07T06:14:55.498Z,100702.40
2023-01-07T06:16:27.360Z,100706.00
2023-01-07T06:17:59.232Z,100707.40
2023-01-07T06:19:31.095Z,100708.40
2023-01-07T06:21:04.330Z,100709.40
2023-01-07T06:22:37.302Z,100705.80
2023-01-07T06:24:09.073Z,100707.00
2023-01-07T06:25:40.877Z,100702.00
2023-01-07T06:27:12.950Z,100700.80
2023-01-07T06:28:45.793Z,100701.40
2023-01-07T06:30:17.712Z,100699.00
2023-01-07T06:31:49.547Z,100697.80
2023-01-07T06:33:21.656Z,100697.00
2023-01-07T06:34:53.442Z,100697.80
2023-01-07T06:36:25.225Z,100693.20
2023-01-07T06:37:57.601Z,100690.80
2023-01-07T06:39:29.392Z,100681.60
2023-01-07T06:41:03.175Z,100683.60
2023-01-07T06:42:35.587Z,100681.60
2023-01-07T06:44:07.497Z,100684.20
2023-01-07T06:45:41.456Z,100681.20
2023-01-07T06:47:13.830Z,100681.60
2023-01-07T06:48:45.633Z,100676.80
2023-01-07T06:50:17.732Z,100678.20
2023-01-07T06:51:49.567Z,100676.40
2023-01-07T06:53:21.374Z,100676.00
2023-01-07T06:54:53.126Z,100677.40
2023-01-07T06:56:24.955Z,100675.80
2023-01-07T06:57:58.781Z,100675.80
2023-01-07T06:59:35.134Z,100673.20
2023-01-07T07:01:08.775Z,100671.80
2023-01-07T07:02:40.843Z,100671.60
2023-01-07T07:04:13.994Z,100670.80
2023-01-07T07:05:46.669Z,100675.20
2023-01-07T07:07:19.015Z,100670.40
2023-01-07T07:08:50.856Z,100670.80
2023-01-07T07:10:22.745Z,100672.20
2023-01-07T07:11:54.714Z,100667.40
2023-01-07T07:13:26.763Z,100668.60
2023-01-07T07:14:59.867Z,100666.60
2023-01-07T07:16:32.787Z,100671.40
2023-01-07T07:18:05.527Z,100669.80
2023-01-07T07:19:37.350Z,100671.00
2023-01-07T07:21:09.533Z,100667.60
2023-01-07T07:22:48.867Z,100663.60
2023-01-07T07:24:20.661Z,100664.60
2023-01-07T07:25:52.487Z,100663.20
2023-01-07T07:27:24.650Z,100658.80
2023-01-07T07:28:56.472Z,100662.00
2023-01-07T07:30:46.252Z,100663.80
2023-01-07T07:32:20.013Z,100663.80
2023-01-07T07:33:51.897Z,100659.40
2023-01-07T07:35:23.736Z,100659.00
2023-01-07T07:36:55.664Z,100658.80
2023-01-07T07:38:28.332Z,100657.60
2023-01-07T07:40:00.311Z,100656.00
2023-01-07T07:41:32.241Z,100651.80
2023-01-07T07:43:10.929Z,100654.60
2023-01-07T07:44:44.614Z,100649.60
2023-01-07T07:46:16.638Z,100649.00
2023-01-07T07:47:48.469Z,100653.20
2023-01-07T07:49:20.287Z,100646.40
2023-01-07T07:50:52.643Z,100652.20
2023-01-07T07:52:24.622Z,100646.60
2023-01-07T07:53:57.441Z,100640.80
2023-01-07T07:55:31.238Z,100644.60
2023-01-07T07:57:04.375Z,100645.20
2023-01-07T07:58:36.628Z,100636.60
2023-01-07T08:00:09.877Z,100636.40
2023-01-07T08:01:47.035Z,100632.60
2023-01-07T08:03:19.143Z,100633.60
2023-01-07T08:04:51.579Z,100633.00
2023-01-07T08:06:23.821Z,100626.80
2023-01-07T08:07:56.770Z,100624.20
2023-01-07T08:09:28.948Z,100621.00
2023-01-07T08:11:02.844Z,100619.40
2023-01-07T08:12:38.617Z,100618.80
2023-01-07T08:14:10.555Z,100618.00
2023-01-07T08:15:42.429Z,100614.20
2023-01-07T08:17:16.270Z,100618.40
2023-01-07T08:18:48.603Z,100621.00
2023-01-07T08:20:20.562Z,100619.80
2023-01-07T08:21:53.031Z,100616.60
2023-01-07T08:23:28.105Z,100611.20
2023-01-07T08:25:01.610Z,100608.00
2023-01-07T08:26:33.739Z,100613.60
2023-01-07T08:28:05.981Z,100610.20
2023-01-07T08:29:39.251Z,100613.00
2023-01-07T08:31:11.939Z,100611.40
2023-01-07T08:32:44.103Z,100611.40
2023-01-07T08:34:16.045Z,100611.80
2023-01-07T08:35:48.827Z,100607.80
2023-01-07T08:37:21.130Z,100613.60
2023-01-07T08:38:55.564Z,100605.40
2023-01-07T08:40:27.340Z,100605.40
2023-01-07T08:42:00.734Z,100609.20
2023-01-07T08:43:33.533Z,100603.80
2023-01-07T08:45:09.416Z,100606.40
2023-01-07T08:46:43.124Z,100605.40
2023-01-07T08:48:15.752Z,100604.20
2023-01-07T08:49:47.797Z,100595.20
2023-01-07T08:51:19.688Z,100597.20
2023-01-07T08:52:51.798Z,100598.80
2023-01-07T08:54:23.707Z,100593.20
2023-01-07T08:55:55.647Z,100591.40
2023-01-07T08:57:29.114Z,100598.60
2023-01-07T08:59:00.906Z,100594.80
2023-01-07T09:00:32.799Z,100596.40
2023-01-07T09:02:04.901Z,100591.80
2023-01-07T09:03:38.138Z,100592.80
2023-01-07T09:05:11.569Z,100595.20
2023-01-07T09:06:43.391Z,100594.80
2023-01-07T09:08:16.155Z,100591.00
2023-01-07T09:09:48.080Z,100590.20
2023-01-07T09:11:20.022Z,100589.40
2023-01-07T09:12:53.230Z,100593.80
2023-01-07T09:14:25.249Z,100587.20
2023-01-07T09:15:57.315Z,100591.20
2023-01-07T09:17:29.613Z,100591.60
2023-01-07T09:19:01.554Z,100586.80
2023-01-07T09:20:33.357Z,100588.20
2023-01-07T09:22:07.761Z,100589.20
2023-01-07T09:23:40.473Z,100581.40
2023-01-07T09:25:12.521Z,100579.80
2023-01-07T09:26:44.685Z,100576.00
2023-01-07T09:28:16.618Z,100577.00
2023-01-07T09:29:48.738Z,100580.20
2023-01-07T09:31:20.703Z,100575.40
2023-01-07T09:32:52.615Z,100577.40
2023-01-07T09:34:26.536Z,100570.00
2023-01-07T09:35:58.354Z,100567.20
2023-01-07T09:37:30.145Z,100569.80
2023-01-07T09:39:01.916Z,100570.80
2023-01-07T09:40:40.495Z,100568.20
2023-01-07T09:42:40.631Z,100568.40
2023-01-07T09:44:34.918Z,100571.80
2023-01-07T09:46:09.894Z,100570.60
2023-01-07T09:47:46.932Z,100568.40
2023-01-07T09:49:19.974Z,100569.20
2023-01-07T09:51:01.622Z,100564.00
2023-01-07T09:52:44.256Z,100564.80
2023-01-07T09:54:32.972Z,100558.00
2023-01-07T09:56:23.419Z,100562.80
2023-01-07T09:57:55.599Z,100561.00
2023-01-07T09:59:27.870Z,100562.80
2023-01-07T10:01:44.134Z,100560.60
2023-01-07T10:03:44.715Z,100560.40
2023-01-07T10:05:35.007Z,100553.40
2023-01-07T10:07:31.889Z,100552.40
2023-01-07T10:09:52.620Z,100554.20
2023-01-07T10:12:01.500Z,100551.00
2023-01-07T10:14:24.081Z,100549.20
2023-01-07T10:16:25.101Z,100545.00
2023-01-07T10:18:21.159Z,100545.40
2023-01-07T10:20:33.652Z,100543.20
2023-01-07T10:22:22.286Z,100542.00
2023-01-07T10:24:04.689Z,100541.40
2023-01-07T10:25:46.739Z,100543.40
2023-01-07T10:27:38.003Z,100538.20
2023-01-07T10:29:31.802Z,100541.20
2023-01-07T10:31:10.161Z,100534.60
2023-01-07T10:32:44.452Z,100532.20
2023-01-07T10:34:26.135Z,100529.00
2023-01-07T10:36:07.334Z,100529.60
2023-01-07T10:37:43.166Z,100532.60
2023-01-07T10:39:29.903Z,100525.40
2023-01-07T10:41:16.383Z,100517.80
2023-01-07T10:43:11.672Z,100521.00
2023-01-07T10:44:50.260Z,100515.60
2023-01-07T10:46:45.715Z,100510.80
2023-01-07T10:48:36.156Z,100505.20
2023-01-07T10:50:52.889Z,100498.60
2023-01-07T10:53:00.719Z,100497.60
2023-01-07T10:55:03.661Z,100491.20
2023-01-07T10:56:54.877Z,100481.60
2023-01-07T10:58:58.997Z,100478.60
2023-01-07T11:00:31.113Z,100472.40
2023-01-07T11:02:05.389Z,100463.80
2023-01-07T11:03:40.518Z,100457.60
2023-01-07T11:05:14.855Z,100458.60
2023-01-07T11:07:04.639Z,100454.00
2023-01-07T11:08:43.133Z,100447.20
2023-01-07T11:10:29.705Z,100447.80
2023-01-07T11:12:25.964Z,100446.00
2023-01-07T11:14:10.586Z,100440.80
2023-01-07T11:16:11.375Z,100428.60
2023-01-07T11:17:55.010Z,100425.00
2023-01-07T11:19:51.488Z,100421.00
2023-01-07T11:21:44.789Z,100422.80
2023-01-07T11:23:43.799Z,100410.20
2023-01-07T11:25:29.705Z,100407.20
2023-01-07T11:27:18.128Z,100396.00
2023-01-07T11:29:02.305Z,100396.00
2023-01-07T11:30:34.255Z,100386.00
2023-01-07T11:32:17.418Z,100387.20
2023-01-07T11:34:01.935Z,100388.20
2023-01-07T11:35:36.304Z,100384.60
2023-01-07T11:37:11.389Z,100379.60
2023-01-07T11:38:44.799Z,100383.20
2023-01-07T11:40:25.055Z,100377.20
2023-01-07T11:42:32.500Z,100379.60
2023-01-07T11:44:16.631Z,100370.40
2023-01-07T11:46:20.444Z,100359.60
2023-01-07T11:48:10.764Z,100354.80
2023-01-07T11:49:46.391Z,100352.00
2023-01-07T11:51:21.920Z,100344.20
2023-01-07T11:53:19.009Z,100342.60
2023-01-07T11:54:52.113Z,100340.80
2023-01-07T11:56:27.087Z,100345.40
2023-01-07T11:58:29.467Z,100338.60
2023-01-07T12:00:20.451Z,100338.20
2023-01-07T12:01:59.591Z,100328.80
2023-01-07T12:03:31.924Z,100316.20
2023-01-07T12:05:27.678Z,100316.00
2023-01-07T12:07:08.949Z,100313.00
2023-01-07T12:08:49.765Z,100308.80
2023-01-07T12:10:26.074Z,100308.60
2023-01-07T12:12:34.665Z,100297.20
2023-01-07T12:14:20.103Z,100299.60
2023-01-07T12:16:03.622Z,100300.20
2023-01-07T12:17:36.687Z,100295.40
2023-01-07T12:19:37.754Z,100291.00
2023-01-07T12:21:35.932Z,100294.00
2023-01-07T12:24:07.011Z,100288.80
2023-01-07T12:25:48.009Z,100297.20
2023-01-07T12:27:36.219Z,100291.00
2023-01-07T12:29:36.412Z,100286.20
2023-01-07T12:31:44.797Z,100281.60
2023-01-07T12:33:41.854Z,100283.00
2023-01-07T12:35:28.489Z,100279.40
2023-01-07T12:37:49.001Z,100270.00
2023-01-07T12:39:36.618Z,100257.40
2023-01-07T12:41:19.918Z,100250.80
2023-01-07T12:43:09.369Z,100243.00
2023-01-07T12:44:57.466Z,100244.20
2023-01-07T12:46:40.906Z,100242.00
2023-01-07T12:48:32.928Z,100236.80
2023-01-07T12:50:16.430Z,100239.40
2023-01-07T12:52:40.083Z,100239.40
2023-01-07T12:54:26.425Z,100245.20
2023-01-07T12:56:23.079Z,100236.80
2023-01-07T12:58:16.613Z,100237.40
2023-01-07T13:00:05.155Z,100229.80
2023-01-07T13:02:10.536Z,100232.40
2023-01-07T13:05:00.114Z,100231.60
2023-01-07T13:06:44.660Z,100231.20
2023-01-07T13:08:42.713Z,100229.20
2023-01-07T13:10:24.122Z,100224.00
2023-01-07T13:12:48.133Z,100220.40
2023-01-07T13:14:31.416Z,100217.80
2023-01-07T13:16:12.094Z,100218.80
2023-01-07T13:17:44.304Z,100215.40
2023-01-07T13:19:16.610Z,100206.20
2023-01-07T13:21:07.335Z,100201.20
2023-01-07T13:22:58.517Z,100197.80
2023-01-07T13:24:54.754Z,100194.40
2023-01-07T13:27:09.481Z,100189.20
2023-01-07T13:29:35.068Z,100192.40
2023-01-07T13:31:42.836Z,100192.60
2023-01-07T13:33:28.210Z,100193.00
2023-01-07T13:35:27.470Z,100186.60
2023-01-07T13:37:21.141Z,100184.00
2023-01-07T13:39:54.940Z,100180.00
2023-01-07T13:42:09.041Z,100180.20
2023-01-07T13:44:18.461Z,100183.20
2023-01-07T13:46:09.502Z,100178.00
2023-01-07T13:47:54.492Z,100174.80
2023-01-07T13:49:35.903Z,100170.40
2023-01-07T13:51:59.192Z,100167.60
2023-01-07T13:53:50.599Z,100162.40
2023-01-07T13:55:33.090Z,100156.60
2023-01-07T13:57:30.640Z,100162.20
2023-01-07T13:59:03.820Z,100162.00
2023-01-07T14:00:44.034Z,100159.20
2023-01-07T14:02:25.680Z,100157.00
2023-01-07T14:04:07.282Z,100161.60
2023-01-07T14:05:40.553Z,100159.80
2023-01-07T14:07:13.172Z,100160.20
2023-01-07T14:08:52.971Z,100155.00
2023-01-07T14:10:36.377Z,100150.40
2023-01-07T14:12:37.530Z,100147.20
2023-01-07T14:14:43.226Z,100146.60
2023-01-07T14:16:42.862Z,100137.80
2023-01-07T14:19:10.209Z,100137.40
2023-01-07T14:21:11.251Z,100135.40
2023-01-07T14:23:51.170Z,100130.40
2023-01-07T14:25:44.179Z,100131.00
2023-01-07T14:27:41.610Z,100127.60
2023-01-07T14:30:16.046Z,100122.40
2023-01-07T14:31:51.406Z,100122.00
2023-01-07T14:33:36.314Z,100122.00
2023-01-07T14:35:37.303Z,100119.60
2023-01-07T14:37:16.698Z,100111.80
2023-01-07T14:38:59.297Z,100116.20
2023-01-07T14:40:33.222Z,100104.60
2023-01-07T14:42:20.057Z,100107.80
2023-01-07T14:44:06.393Z,100111.60
2023-01-07T14:45:42.395Z,100103.20
2023-01-07T14:47:52.961Z,100099.00
2023-01-07T14:49:50.495Z,100098.60
2023-01-07T14:51:51.486Z,100101.20
2023-01-07T14:54:12.144Z,100094.20
2023-01-07T14:56:29.437Z,100097.60
2023-01-07T14:58:39.852Z,100092.60
2023-01-07T15:00:41.152Z,100094.20
2023-01-07T15:02:35.407Z,100090.80
2023-01-07T15:04:35.830Z,100091.60
2023-01-07T15:06:31.029Z,100087.20
2023-01-07T15:08:28.199Z,100089.20
2023-01-07T15:10:36.868Z,100092.80
2023-01-07T15:12:41.002Z,100088.80
2023-01-07T15:15:00.261Z,100082.60
2023-01-07T15:16:35.995Z,100076.40
2023-01-07T15:18:12.836Z,100067.80
2023-01-07T15:19:45.852Z,100068.20
2023-01-07T15:21:53.838Z,100065.40
2023-01-07T15:23:25.584Z,100063.20
2023-01-07T15:25:22.734Z,100058.60
2023-01-07T15:27:22.212Z,100060.20
2023-01-07T15:29:13.343Z,100065.40
2023-01-07T15:31:06.300Z,100063.80
2023-01-07T15:33:01.660Z,100064.20
2023-01-07T15:34:33.880Z,100063.40
2023-01-07T15:36:14.002Z,100059.00
2023-01-07T15:37:51.458Z,100057.00
2023-01-07T15:39:52.365Z,100064.00
2023-01-07T15:41:34.013Z,100061.60
2023-01-07T15:43:08.962Z,100063.20
2023-01-07T15:44:42.963Z,100060.40
2023-01-07T15:46:29.049Z,100056.40
2023-01-07T15:48:12.806Z,100050.20
2023-01-07T15:49:46.268Z,100045.80
2023-01-07T15:51:22.479Z,100043.80
2023-01-07T15:53:16.191Z,100039.60
2023-01-07T15:54:56.989Z,100030.80
2023-01-07T15:56:30.800Z,100030.00
2023-01-07T15:58:48.891Z,100029.60
2023-01-07T16:00:25.494Z,100028.80
2023-01-07T16:02:27.905Z,100026.00
2023-01-07T16:04:00.472Z,100021.20
2023-01-07T16:05:38.344Z,100020.00
2023-01-07T16:07:56.012Z,100016.20
2023-01-07T16:09:34.372Z,100017.80
2023-01-07T16:11:22.513Z,100018.60
2023-01-07T16:13:05.063Z,100009.00
2023-01-07T16:14:37.783Z,100005.60
2023-01-07T16:16:30.486Z,100004.60
2023-01-07T16:18:08.651Z,100002.60
2023-01-07T16:19:46.961Z,99998.40
2023-01-07T16:21:18.958Z,99996.20
2023-01-07T16:23:26.720Z,99999.40
2023-01-07T16:25:02.152Z,99993.40
2023-01-07T16:26:53.518Z,99996.40
2023-01-07T16:28:35.440Z,99997.20
2023-01-07T16:30:34.080Z,99998.00
2023-01-07T16:32:07.769Z,99994.40
2023-01-07T16:33:49.038Z,99991.60
2023-01-07T16:35:37.042Z,99998.40
2023-01-07T16:37:16.198Z,100000.40
2023-01-07T16:38:58.056Z,100002.40
2023-01-07T16:40:41.055Z,99997.60
2023-01-07T16:42:29.026Z,100001.80
2023-01-07T16:44:01.685Z,100000.00
2023-01-07T16:45:39.816Z,99998.80
2023-01-07T16:47:29.423Z,99992.60
2023-01-07T16:49:29.092Z,99998.00
2023-01-07T16:51:03.012Z,99993.20
2023-01-07T16:52:35.429Z,99993.80
2023-01-07T16:54:31.536Z,99990.60
2023-01-07T16:56:17.887Z,99988.40
2023-01-07T16:57:52.277Z,99980.80
2023-01-07T17:00:01.495Z,99985.40
2023-01-07T17:01:35.489Z,99979.40
2023-01-07T17:03:13.808Z,99973.20
2023-01-07T17:04:47.517Z,99973.40
2023-01-07T17:06:40.117Z,99982.60
2023-01-07T17:08:20.303Z,99979.40
2023-01-07T17:10:01.419Z,99983.20
2023-01-07T17:11:39.858Z,99980.00
2023-01-07T17:13:26.713Z,99979.20
2023-01-07T17:15:02.351Z,99978.00
2023-01-07T17:16:35.749Z,99975.40
2023-01-07T17:18:16.591Z,99969.40
2023-01-07T17:20:12.510Z,99969.60
2023-01-07T17:21:46.758Z,99962.00
2023-01-07T17:23:24.792Z,99954.00
2023-01-07T17:25:15.581Z,99956.20
2023-01-07T17:26:49.535Z,99954.80
2023-01-07T17:28:25.518Z,99952.80
2023-01-07T17:30:27.059Z,99951.40
2023-01-07T17:32:02.189Z,99949.80
2023-01-07T17:33:41.430Z,99947.20
2023-01-07T17:35:24.704Z,99947.60
2023-01-07T17:36:59.976Z,99955.00
2023-01-07T17:38:36.129Z,99956.00
2023-01-07T17:40:16.157Z,99963.40
2023-01-07T17:42:11.298Z,99963.60
2023-01-07T17:43:55.912Z,99955.20
2023-01-07T17:45:29.583Z,99955.60
2023-01-07T17:47:11.967Z,99955.20
2023-01-07T17:48:47.493Z,99957.40
2023-01-07T17:50:31.001Z,99951.40
2023-01-07T17:52:24.376Z,99952.40
2023-01-07T17:54:03.398Z,99951.80
2023-01-07T17:55:37.281Z,99946.40
2023-01-07T17:57:14.771Z,99947.00
2023-01-07T18:00:46.219Z,99950.80
2023-01-07T18:02:40.056Z,99947.20
2023-01-07T18:04:16.272Z,99942.00
2023-01-07T18:05:53.574Z,99944.20
2023-01-07T18:07:36.915Z,99940.80
2023-01-07T18:09:14.048Z,99942.40
2023-01-07T18:11:11.985Z,99943.60
2023-01-07T18:12:45.075Z,99945.40
2023-01-07T18:14:22.794Z,99950.20
2023-01-07T18:16:02.630Z,99941.60
2023-01-07T18:17:34.926Z,99940.00
2023-01-07T18:19:06.893Z,99942.00
2023-01-07T18:20:39.153Z,99938.60
2023-01-07T18:22:11.797Z,99938.40
2023-01-07T18:23:46.137Z,99932.20
2023-01-07T18:25:22.931Z,99924.40
2023-01-07T18:26:56.547Z,99927.60
2023-01-07T18:28:31.169Z,99929.60
2023-01-07T18:30:07.951Z,99929.40
2023-01-07T18:31:46.760Z,99930.60
2023-01-07T18:33:22.192Z,99922.00
2023-01-07T18:34:55.307Z,99919.20
2023-01-07T18:36:27.269Z,99916.00
2023-01-07T18:38:01.311Z,99906.00
2023-01-07T18:39:34.220Z,99906.40
2023-01-07T18:41:06.877Z,99903.40
2023-01-07T18:42:38.777Z,99896.80
2023-01-07T18:44:38.185Z,99894.80
2023-01-07T18:46:17.394Z,99883.60
2023-01-07T18:47:50.058Z,99887.40
2023-01-07T18:49:22.312Z,99886.40
2023-01-07T18:50:54.804Z,99888.20
2023-01-07T18:52:31.431Z,99882.00
2023-01-07T18:54:05.026Z,99862.40
2023-01-07T18:55:41.908Z,99866.40
2023-01-07T18:57:14.774Z,99863.40
2023-01-07T18:58:54.915Z,99856.00
2023-01-07T19:00:26.910Z,99862.40
2023-01-07T19:02:03.841Z,99859.60
2023-01-07T19:03:37.225Z,99860.80
2023-01-07T19:05:11.078Z,99854.60
2023-01-07T19:06:43.164Z,99850.00
2023-01-07T19:08:15.094Z,99851.40
2023-01-07T19:09:49.142Z,99846.80
2023-01-07T19:11:22.741Z,99847.60
2023-01-07T19:12:57.503Z,99856.20
2023-01-07T19:14:37.238Z,99862.60
2023-01-07T19:16:12.671Z,99861.40
2023-01-07T19:17:45.176Z,99867.40
2023-01-07T19:19:17.674Z,99860.20
2023-01-07T19:20:49.571Z,99853.00
2023-01-07T19:22:22.166Z,99857.60